Time;durP1;ratioP1;P1;durP2;ratioP2;P2;SDS_P1;SDS_P2;PMS_P1;PMS_P2;Temp;Humidity;BMP_temperature;BMP_pressure;BME280_temperature;BME280_humidity;BME280_pressure;Samples;Min_cycle;Max_cycle;Signal;HPM_P1;HPM_P2
2022/08/28 00:00:14;;;;;;;6.00;3.65;;;;;;;18.78;73.33;100391.34;5094758;28;20135;-69
2022/08/28 00:02:41;;;;;;;5.28;3.63;;;;;;;18.74;73.41;100397.94;5103793;28;20613;-69
2022/08/28 00:05:10;;;;;;;4.88;3.53;;;;;;;18.74;74.35;100397.94;5103555;28;20051;-68
2022/08/28 00:07:37;;;;;;;5.78;3.30;;;;;;;18.75;73.48;100408.53;5102423;28;20067;-68
2022/08/28 00:10:06;;;;;;;5.50;3.75;;;;;;;18.58;74.04;100387.53;5101147;28;20071;-69
2022/08/28 00:12:34;;;;;;;6.03;3.45;;;;;;;18.71;74.36;100407.09;5097843;28;20411;-69
2022/08/28 00:15:06;;;;;;;5.05;3.30;;;;;;;18.71;73.89;100400.88;5105096;28;20105;-69
2022/08/28 00:17:35;;;;;;;7.07;3.55;;;;;;;18.73;73.73;100404.28;5104492;28;20070;-69
2022/08/28 00:20:05;;;;;;;4.80;3.55;;;;;;;18.74;73.74;100403.28;5104175;28;20384;-70
2022/08/28 00:22:31;;;;;;;5.18;3.65;;;;;;;18.73;73.76;100406.97;5102067;28;20039;-69
2022/08/28 00:24:58;;;;;;;4.68;3.33;;;;;;;18.79;73.69;100406.47;5102455;27;20043;-69
2022/08/28 00:30:10;;;;;;;7.18;3.60;;;;;;;18.71;73.89;100400.88;5103416;27;20050;-69
2022/08/28 00:32:37;;;;;;;5.18;3.25;;;;;;;18.81;73.37;100412.56;5104851;27;20139;-70
2022/08/28 00:35:05;;;;;;;5.60;3.67;;;;;;;18.86;73.81;100415.75;5102492;28;20096;-69
2022/08/28 00:37:31;;;;;;;4.18;3.10;;;;;;;18.92;73.22;100415.22;5103823;28;20055;-69
2022/08/28 00:39:58;;;;;;;5.75;3.38;;;;;;;19.00;73.06;100417.28;5102912;27;20051;-69
2022/08/28 00:42:25;;;;;;;5.65;3.80;;;;;;;19.01;72.86;100419.84;5103777;28;20082;-69
2022/08/28 00:44:51;;;;;;;4.50;3.47;;;;;;;18.95;72.62;100412.28;5104075;28;20131;-69
2022/08/28 00:47:18;;;;;;;4.68;3.20;;;;;;;18.95;72.73;100420.34;5104151;28;20040;-69
2022/08/28 00:49:50;;;;;;;6.28;2.88;;;;;;;18.95;73.17;100425.72;5095236;27;20051;-69
2022/08/28 00:52:19;;;;;;;3.38;3.03;;;;;;;18.87;73.16;100398.66;5102322;28;20108;-69
2022/08/28 00:55:12;;;;;;;4.63;3.40;;;;;;;18.98;72.83;100424.63;5103504;27;20124;-69
2022/08/28 00:57:43;;;;;;;5.35;3.10;;;;;;;18.87;72.63;100398.66;5102472;28;20086;-69
2022/08/28 01:00:15;;;;;;;4.68;3.20;;;;;;;18.96;72.76;100418.50;5105678;28;20063;-69
2022/08/28 01:02:42;;;;;;;6.93;3.33;;;;;;;18.89;73.00;100420.81;5100798;28;20105;-68
2022/08/28 01:05:10;;;;;;;8.77;3.45;;;;;;;18.69;73.43;100400.16;5106675;28;20050;-69
2022/08/28 01:07:38;;;;;;;4.20;3.30;;;;;;;18.79;73.88;100418.06;5102652;28;20519;-69
2022/08/28 01:10:09;;;;;;;6.72;3.45;;;;;;;18.66;74.02;100392.34;5088018;28;20075;-68
2022/08/28 01:12:37;;;;;;;6.03;3.60;;;;;;;18.79;74.15;100425.25;5102801;28;20031;-68
2022/08/28 01:15:10;;;;;;;5.20;3.25;;;;;;;18.78;73.90;100408.28;5099243;28;20124;-69
2022/08/28 01:17:42;;;;;;;5.60;3.38;;;;;;;18.84;74.02;100412.31;5107165;28;20134;-70
2022/08/28 01:20:16;;;;;;;5.32;3.40;;;;;;;18.90;73.70;100412.66;5105387;28;20577;-69
2022/08/28 01:22:58;;;;;;;7.93;3.33;;;;;;;18.89;73.40;100402.91;5103458;28;20071;-69
2022/08/28 01:25:29;;;;;;;5.85;3.33;;;;;;;18.88;73.46;100408.41;5101786;28;20564;-70
2022/08/28 01:27:57;;;;;;;5.95;3.45;;;;;;;18.87;73.37;100407.56;5100915;28;20083;-69
2022/08/28 01:30:24;;;;;;;6.32;3.63;;;;;;;18.81;73.97;100408.06;5102011;28;20127;-69
2022/08/28 01:32:54;;;;;;;5.47;3.40;;;;;;;18.74;74.15;100401.47;5105804;27;20051;-69
2022/08/28 01:35:30;;;;;;;7.43;3.45;;;;;;;18.75;74.52;100413.03;5107344;28;20056;-69
2022/08/28 01:37:57;;;;;;;4.93;3.67;;;;;;;18.73;74.42;100406.97;5104546;27;20047;-69
2022/08/28 01:40:35;;;;;;;5.20;3.75;;;;;;;18.71;74.64;100411.59;5104864;28;20566;-69
2022/08/28 01:43:24;;;;;;;5.95;3.70;;;;;;;18.68;74.63;100407.34;5107954;28;20066;-70
2022/08/28 01:46:00;;;;;;;6.15;3.53;;;;;;;18.53;74.80;100381.72;5094109;27;20431;-68
2022/08/28 01:48:30;;;;;;;7.35;3.63;;;;;;;18.67;74.65;100410.13;5104142;28;20363;-70
2022/08/28 01:50:58;;;;;;;7.03;3.50;;;;;;;18.37;75.02;100363.31;5101562;28;20048;-68
2022/08/28 01:53:26;;;;;;;5.13;3.47;;;;;;;18.58;75.36;100406.31;5107448;28;20052;-69
2022/08/28 01:56:00;;;;;;;5.20;3.50;;;;;;;18.61;75.00;100410.63;5107688;28;20059;-69
2022/08/28 01:58:28;;;;;;;7.28;3.83;;;;;;;18.58;75.07;100407.22;5104843;27;20117;-68
2022/08/28 02:00:56;;;;;;;5.63;3.55;;;;;;;18.53;74.72;100384.41;5101471;27;20128;-68
2022/08/28 02:03:23;;;;;;;6.95;3.60;;;;;;;18.66;74.88;100405.75;5099350;27;20040;-69
2022/08/28 02:05:50;;;;;;;5.32;3.55;;;;;;;18.70;74.84;100408.06;5104363;28;20093;-69
2022/08/28 02:08:17;;;;;;;4.82;3.20;;;;;;;18.70;74.89;100404.53;5105861;27;20081;-69
2022/08/28 02:10:44;;;;;;;6.05;3.30;;;;;;;18.77;74.61;100413.78;5093498;28;20040;-69
2022/08/28 02:13:12;;;;;;;7.05;3.63;;;;;;;18.77;74.38;100417.31;5104540;27;20088;-69
2022/08/28 02:15:41;;;;;;;5.75;3.55;;;;;;;18.63;74.14;100396.13;5108448;28;20067;-70
2022/08/28 02:18:09;;;;;;;5.95;3.85;;;;;;;18.75;74.24;100421.94;5105095;28;20214;-69
2022/08/28 02:20:36;;;;;;;5.82;3.58;;;;;;;18.77;74.75;100422.69;5108819;28;20043;-70
2022/08/28 02:23:04;;;;;;;12.65;3.92;;;;;;;18.75;74.54;100421.09;5106223;28;20067;-69
2022/08/28 02:25:31;;;;;;;6.00;3.25;;;;;;;18.77;74.08;100420.00;5108090;28;20677;-69
2022/08/28 02:27:58;;;;;;;5.00;3.90;;;;;;;18.74;74.94;100422.91;5106626;27;20063;-69
2022/08/28 02:30:25;;;;;;;4.38;3.40;;;;;;;18.61;74.26;100406.13;5108342;27;20593;-69
2022/08/28 02:32:53;;;;;;;4.35;3.25;;;;;;;18.67;74.04;100404.78;5103204;27;20055;-69
2022/08/28 02:35:21;;;;;;;4.75;3.42;;;;;;;18.71;74.41;100408.94;5103828;28;20044;-69
2022/08/28 02:37:48;;;;;;;5.15;3.05;;;;;;;18.80;74.71;100418.91;5102492;27;20093;-69
2022/08/28 02:40:17;;;;;;;4.68;3.15;;;;;;;18.82;74.26;100422.31;5106996;28;20587;-70
2022/08/28 02:42:44;;;;;;;6.70;3.55;;;;;;;18.81;73.96;100423.28;5104076;28;20112;-69
2022/08/28 02:45:12;;;;;;;6.38;3.30;;;;;;;18.80;73.95;100422.44;5108034;28;20051;-68
2022/08/28 02:47:41;;;;;;;7.57;3.63;;;;;;;18.72;74.06;100402.59;5102734;28;20083;-69
2022/08/28 02:50:09;;;;;;;6.03;3.33;;;;;;;18.87;74.18;100426.34;5107568;28;20096;-69
2022/08/28 02:52:36;;;;;;;5.60;3.15;;;;;;;18.76;73.72;100404.03;5105474;28;20039;-69
2022/08/28 02:55:05;;;;;;;5.57;3.38;;;;;;;18.88;74.03;100414.63;5104626;27;20534;-69
2022/08/28 02:57:31;;;;;;;8.70;3.42;;;;;;;18.93;73.58;100430.34;5104761;27;20044;-69
2022/08/28 02:59:58;;;;;;;7.20;3.30;;;;;;;18.87;73.64;100420.13;5104476;27;20096;-69
2022/08/28 03:02:25;;;;;;;6.85;3.33;;;;;;;18.76;73.91;100399.50;5101142;27;20039;-69
2022/08/28 03:04:54;;;;;;;4.90;3.33;;;;;;;18.92;73.88;100418.75;5095549;27;20101;-70
2022/08/28 03:07:21;;;;;;;4.85;3.00;;;;;;;18.95;73.59;100431.06;5108018;27;20120;-69
2022/08/28 03:09:49;;;;;;;4.70;3.08;;;;;;;18.95;73.59;100424.84;5105724;27;20544;-68
2022/08/28 03:12:16;;;;;;;5.65;3.13;;;;;;;18.95;73.41;100422.16;5104788;28;20552;-70
2022/08/28 03:14:44;;;;;;;7.68;3.30;;;;;;;18.98;73.58;100427.28;5107031;28;20509;-69
2022/08/28 03:17:10;;;;;;;7.22;3.53;;;;;;;18.97;73.33;100421.06;5104269;28;20483;-68
2022/08/28 03:19:37;;;;;;;6.45;3.05;;;;;;;18.99;73.19;100429.84;5101958;27;20113;-68
2022/08/28 03:22:03;;;;;;;5.82;3.33;;;;;;;18.97;73.20;100426.44;5104599;27;20054;-69
2022/08/28 03:24:30;;;;;;;4.28;2.95;;;;;;;18.96;73.51;100426.56;5098970;28;20549;-68
2022/08/28 03:26:57;;;;;;;9.20;3.35;;;;;;;19.00;72.83;100431.56;5106327;28;20047;-69
2022/08/28 03:29:24;;;;;;;6.45;2.92;;;;;;;19.00;73.06;100428.88;5101974;28;20047;-69
2022/08/28 03:31:51;;;;;;;5.13;2.90;;;;;;;19.05;73.41;100429.34;5110155;27;20051;-69
2022/08/28 03:34:18;;;;;;;5.00;3.05;;;;;;;18.96;72.32;100411.31;5103204;27;20067;-68
2022/08/28 03:36:45;;;;;;;6.90;3.25;;;;;;;18.98;73.31;100419.25;5093169;27;20120;-68
2022/08/28 03:39:12;;;;;;;5.88;2.92;;;;;;;19.00;73.03;100419.97;5105223;28;20468;-69
2022/08/28 03:41:39;;;;;;;8.63;3.63;;;;;;;19.00;73.17;100428.03;5107291;27;20051;-69
2022/08/28 03:44:06;;;;;;;6.70;3.63;;;;;;;18.95;73.19;100433.75;5106797;28;20043;-69
2022/08/28 03:46:33;;;;;;;4.57;3.08;;;;;;;18.90;73.21;100423.38;5107144;27;20280;-68
2022/08/28 03:49:02;;;;;;;5.88;3.10;;;;;;;18.91;73.40;100434.97;5100715;28;20373;-69
2022/08/28 03:51:31;;;;;;;7.18;3.58;;;;;;;18.92;73.84;100431.31;5103026;27;20558;-69
2022/08/28 03:53:58;;;;;;;6.55;3.20;;;;;;;18.78;73.09;100410.97;5106871;28;20116;-68
2022/08/28 03:56:27;;;;;;;8.38;2.92;;;;;;;18.90;73.34;100430.59;5107825;28;20509;-68
2022/08/28 03:58:57;;;;;;;9.02;3.35;;;;;;;18.88;73.67;100427.19;5105252;27;20079;-68
2022/08/28 04:01:24;;;;;;;7.05;2.90;;;;;;;18.90;73.83;100438.63;5102438;28;20128;-68
2022/08/28 04:03:51;;;;;;;5.90;3.05;;;;;;;18.86;73.62;100432.69;5103849;28;20065;-68
2022/08/28 04:06:18;;;;;;;8.18;3.00;;;;;;;18.84;73.49;100433.78;5108057;27;20479;-68
2022/08/28 04:08:46;;;;;;;9.15;3.25;;;;;;;18.81;73.82;100436.72;5100733;27;20101;-67
2022/08/28 04:11:13;;;;;;;6.35;2.83;;;;;;;18.63;73.87;100408.66;5103720;28;20101;-68
2022/08/28 04:13:40;;;;;;;6.28;3.22;;;;;;;18.67;74.11;100424.41;5103982;28;20059;-68
2022/08/28 04:16:11;;;;;;;8.00;3.00;;;;;;;18.83;73.58;100440.97;5107220;28;20047;-68
2022/08/28 04:18:40;;;;;;;7.47;3.03;;;;;;;18.79;73.68;100435.97;5101448;27;20036;-69
2022/08/28 04:21:10;;;;;;;6.32;3.13;;;;;;;18.82;73.70;100436.59;5107026;27;20040;-69
2022/08/28 04:23:38;;;;;;;9.05;3.00;;;;;;;18.87;73.26;100441.59;5103182;28;20667;-69
2022/08/28 04:26:07;;;;;;;5.57;2.80;;;;;;;18.88;72.62;100446.84;5105463;28;20062;-68
2022/08/28 04:28:33;;;;;;;6.35;2.50;;;;;;;18.86;72.93;100445.25;5085113;28;20104;-68
2022/08/28 04:31:01;;;;;;;6.03;2.78;;;;;;;18.87;72.56;100445.13;5109013;27;20482;-68
2022/08/28 04:33:28;;;;;;;9.07;2.85;;;;;;;18.87;72.45;100447.81;5103680;28;20135;-68
2022/08/28 04:35:55;;;;;;;6.55;2.58;;;;;;;18.84;72.44;100445.38;5083572;28;20055;-68
2022/08/28 04:38:22;;;;;;;7.13;2.50;;;;;;;18.84;71.90;100447.19;5099410;28;20063;-68
2022/08/28 04:40:49;;;;;;;9.80;2.90;;;;;;;18.71;71.97;100430.38;5106422;28;20055;-69
2022/08/28 04:43:15;;;;;;;8.63;2.72;;;;;;;18.84;72.21;100449.88;5101147;28;20048;-68
2022/08/28 04:45:44;;;;;;;11.00;2.80;;;;;;;18.84;71.70;100453.41;5102381;28;20043;-69
2022/08/28 04:48:12;;;;;;;10.13;2.83;;;;;;;18.85;70.89;100447.06;5073380;28;20048;-68
2022/08/28 04:50:44;;;;;;;8.10;3.05;;;;;;;18.85;71.06;100463.19;5105723;28;20081;-68
2022/08/28 04:53:11;;;;;;;8.50;2.30;;;;;;;18.85;70.83;100448.91;5104146;27;20059;-68
2022/08/28 04:55:48;;;;;;;5.22;2.22;;;;;;;18.83;70.85;100450.84;5106021;28;20051;-68
2022/08/28 04:58:20;;;;;;;6.43;2.65;;;;;;;18.68;70.91;100428.78;5100677;27;20647;-70
2022/08/28 05:00:50;;;;;;;7.70;2.75;;;;;;;18.80;71.03;100457.31;5078231;28;20047;-67
2022/08/28 05:03:18;;;;;;;5.95;2.63;;;;;;;18.79;70.69;100460.13;5101943;27;20146;-70
2022/08/28 05:05:47;;;;;;;6.25;2.63;;;;;;;18.81;70.46;100458.16;5101594;28;20047;-68
2022/08/28 05:08:17;;;;;;;6.38;2.67;;;;;;;18.77;71.27;100464.75;5097806;28;20052;-69
2022/08/28 05:10:45;;;;;;;6.82;2.58;;;;;;;18.76;70.99;100468.41;5100504;28;20116;-68
2022/08/28 05:13:17;;;;;;;9.35;2.70;;;;;;;18.79;70.77;100462.81;5101808;28;21883;-69
2022/08/28 05:15:49;;;;;;;9.85;2.60;;;;;;;18.80;70.48;100464.50;5103752;28;20511;-68
2022/08/28 05:18:19;;;;;;;7.88;2.55;;;;;;;18.71;70.81;100465.25;5099739;28;20459;-68
2022/08/28 05:20:47;;;;;;;11.00;3.10;;;;;;;18.77;71.13;100470.13;5099225;28;20048;-68
2022/08/28 05:23:15;;;;;;;6.75;2.67;;;;;;;18.78;71.30;100477.19;5096347;28;20090;-68
2022/08/28 05:25:45;;;;;;;8.70;3.00;;;;;;;18.80;70.45;100480.59;5102836;28;20063;-68
2022/08/28 05:28:13;;;;;;;6.20;2.43;;;;;;;18.90;70.32;100489.63;5100540;28;20064;-70
2022/08/28 05:30:40;;;;;;;6.65;2.30;;;;;;;18.91;70.35;100494.00;5096962;28;20488;-69
2022/08/28 05:33:09;;;;;;;6.80;2.65;;;;;;;18.91;70.28;100500.22;5100518;28;20075;-70
2022/08/28 05:35:38;;;;;;;7.57;2.47;;;;;;;18.82;70.03;100487.56;5090241;28;20052;-70
2022/08/28 05:38:06;;;;;;;7.13;2.58;;;;;;;18.88;70.29;100508.56;5079734;28;20054;-70
2022/08/28 05:40:33;;;;;;;7.05;2.20;;;;;;;18.81;70.64;100507.31;5089253;28;20062;-70
2022/08/28 05:43:00;;;;;;;6.78;2.50;;;;;;;18.77;70.83;100519.25;5083440;28;20081;-68
2022/08/28 05:45:26;;;;;;;6.18;2.50;;;;;;;18.74;71.25;100515.97;5073240;28;20045;-68
2022/08/28 05:47:53;;;;;;;5.88;2.70;;;;;;;18.70;70.91;100519.88;5080497;28;20536;-68
2022/08/28 05:50:20;;;;;;;6.97;2.47;;;;;;;18.69;71.10;100516.34;5082059;28;20044;-69
2022/08/28 05:52:47;;;;;;;7.65;2.97;;;;;;;18.62;71.17;100504.38;5082999;28;20256;-68
2022/08/28 05:55:13;;;;;;;8.10;2.70;;;;;;;18.69;70.84;100512.81;5085683;28;20044;-68
2022/08/28 05:57:40;;;;;;;7.50;2.30;;;;;;;18.68;70.87;100505.72;5080136;28;20067;-68
2022/08/28 06:00:12;;;;;;;8.13;2.78;;;;;;;18.82;70.81;100514.41;5080550;28;20110;-71
2022/08/28 06:02:40;;;;;;;7.93;2.72;;;;;;;18.93;70.04;100517.06;5086038;28;20040;-70
2022/08/28 06:05:08;;;;;;;10.23;2.45;;;;;;;19.05;69.47;100517.91;5088925;28;20048;-68
2022/08/28 06:07:39;;;;;;;8.35;2.58;;;;;;;19.15;69.45;100518.03;5085025;28;20040;-68
2022/08/28 06:10:07;;;;;;;9.05;2.30;;;;;;;19.32;68.70;100519.38;5082778;28;20048;-68
2022/08/28 06:12:36;;;;;;;10.95;2.30;;;;;;;19.53;67.87;100514.94;5079482;28;20134;-68
2022/08/28 06:15:04;;;;;;;7.50;2.35;;;;;;;19.67;66.83;100517.38;5076328;28;20559;-68
2022/08/28 06:17:33;;;;;;;8.85;2.60;;;;;;;19.73;66.55;100519.53;5080591;28;20945;-68
2022/08/28 06:20:01;;;;;;;5.60;2.15;;;;;;;19.75;66.47;100512.19;5079628;28;20188;-68
2022/08/28 06:22:27;;;;;;;8.43;2.22;;;;;;;19.72;66.16;100520.50;5083919;28;20044;-68
2022/08/28 06:24:54;;;;;;;7.10;2.47;;;;;;;19.69;66.48;100517.22;5088085;28;20492;-68
2022/08/28 06:27:21;;;;;;;5.88;2.53;;;;;;;19.70;66.37;100516.22;5086094;28;20078;-67
2022/08/28 06:29:49;;;;;;;6.22;2.20;;;;;;;19.73;66.27;100527.56;5075792;28;20052;-70
2022/08/28 06:32:15;;;;;;;6.13;2.08;;;;;;;19.79;65.28;100524.41;5080150;28;20076;-70
2022/08/28 06:34:42;;;;;;;8.18;2.20;;;;;;;19.71;65.31;100513.41;5087995;27;20066;-70
2022/08/28 06:37:11;;;;;;;8.05;2.00;;;;;;;19.69;64.90;100522.56;5104365;28;20040;-68
2022/08/28 06:39:41;;;;;;;4.65;2.05;;;;;;;19.68;64.94;100523.56;5106788;28;20112;-68
2022/08/28 06:42:09;;;;;;;6.00;2.20;;;;;;;19.66;65.14;100533.59;5102996;27;20059;-70
2022/08/28 06:44:37;;;;;;;9.10;2.60;;;;;;;19.60;65.15;100533.13;5106431;27;20493;-68
2022/08/28 06:47:04;;;;;;;6.72;2.05;;;;;;;19.49;64.99;100527.78;5109161;27;20131;-68
2022/08/28 06:49:31;;;;;;;7.30;2.50;;;;;;;19.44;65.23;100521.03;5108569;27;20059;-75
2022/08/28 06:51:59;;;;;;;6.93;2.30;;;;;;;19.55;65.34;100538.00;5106594;28;20055;-68
2022/08/28 06:54:29;;;;;;;8.18;2.10;;;;;;;19.64;64.65;100532.88;5106031;28;20044;-69
2022/08/28 06:56:56;;;;;;;8.80;2.30;;;;;;;19.76;63.88;100539.91;5107926;27;20047;-69
2022/08/28 06:59:22;;;;;;;8.02;2.28;;;;;;;19.86;64.06;100541.69;5102568;28;20108;-69
2022/08/28 07:01:51;;;;;;;5.95;2.13;;;;;;;19.82;62.77;100513.41;5098504;27;20084;-69
2022/08/28 07:04:18;;;;;;;9.38;2.25;;;;;;;19.90;62.53;100532.41;5100174;28;20406;-70
2022/08/28 07:06:48;;;;;;;6.60;2.20;;;;;;;19.83;62.58;100535.75;5105432;28;20047;-70
2022/08/28 07:09:20;;;;;;;7.18;2.63;;;;;;;19.80;63.25;100531.47;5104809;28;20046;-68
2022/08/28 07:11:47;;;;;;;14.13;2.28;;;;;;;19.81;62.83;100537.72;5105648;28;20075;-69
2022/08/28 07:14:13;;;;;;;5.40;2.05;;;;;;;19.87;63.02;100527.28;5102810;27;20093;-70
2022/08/28 07:16:40;;;;;;;6.55;2.00;;;;;;;19.83;63.15;100519.63;5106173;27;20064;-69
2022/08/28 07:19:10;;;;;;;7.07;2.10;;;;;;;20.04;63.12;100538.44;5103292;27;20079;-70
2022/08/28 07:21:40;;;;;;;9.32;2.00;;;;;;;20.13;62.34;100549.31;5106868;27;20048;-69
2022/08/28 07:24:09;;;;;;;6.53;1.98;;;;;;;20.26;61.79;100549.13;5102290;28;20040;-69
2022/08/28 07:26:36;;;;;;;9.32;2.40;;;;;;;20.29;61.45;100535.41;5102509;27;20040;-69
2022/08/28 07:29:06;;;;;;;4.13;1.95;;;;;;;20.43;61.00;100537.81;5105153;28;20043;-70
2022/08/28 07:31:41;;;;;;;10.27;2.10;;;;;;;20.41;61.12;100515.56;5114747;27;20473;-70
2022/08/28 07:34:10;;;;;;;6.25;2.33;;;;;;;20.57;60.57;100542.00;5079711;28;20051;-70
2022/08/28 07:36:37;;;;;;;5.88;2.13;;;;;;;20.56;59.46;100529.53;5105148;27;20456;-69
2022/08/28 07:39:05;;;;;;;5.35;1.80;;;;;;;20.64;59.59;100541.31;5102969;28;20456;-69
2022/08/28 07:41:36;;;;;;;5.38;2.05;;;;;;;20.70;59.56;100544.47;5099199;27;20047;-70
2022/08/28 07:46:52;;;;;;;7.03;2.25;;;;;;;20.65;59.54;100532.25;5100876;27;20086;-70
2022/08/28 07:49:19;;;;;;;4.72;1.75;;;;;;;20.91;58.93;100548.84;5105150;28;20039;-69
2022/08/28 07:51:45;;;;;;;5.50;1.85;;;;;;;21.20;57.60;100551.69;5104315;28;20039;-69
2022/08/28 07:54:13;;;;;;;8.82;2.05;;;;;;;21.81;56.87;100550.69;5099094;28;20535;-69
2022/08/28 07:56:44;;;;;;;6.63;2.00;;;;;;;22.42;54.80;100548.59;5103405;28;20051;-69
2022/08/28 07:59:12;;;;;;;8.75;2.30;;;;;;;22.86;51.57;100559.75;5102691;28;20053;-70
2022/08/28 08:01:45;;;;;;;8.68;2.25;;;;;;;22.60;52.14;100554.94;5103488;27;20625;-69
2022/08/28 08:04:14;;;;;;;8.82;2.30;;;;;;;22.31;53.39;100559.53;5100705;27;20051;-69
2022/08/28 08:06:41;;;;;;;6.20;2.00;;;;;;;21.87;53.55;100558.22;5103065;28;20400;-69
2022/08/28 08:09:11;;;;;;;6.47;2.28;;;;;;;21.78;55.40;100572.53;5101876;28;20040;-69
2022/08/28 08:11:38;;;;;;;7.13;1.85;;;;;;;21.78;54.35;100557.22;5099626;28;20108;-70
2022/08/28 08:14:06;;;;;;;7.47;2.30;;;;;;;21.99;53.74;100558.00;5104994;27;20511;-69
2022/08/28 08:16:37;;;;;;;5.25;2.08;;;;;;;22.56;52.65;100571.56;5103285;27;20043;-69
2022/08/28 08:19:04;;;;;;;5.30;2.17;;;;;;;22.98;51.02;100570.22;5097764;28;20035;-69
2022/08/28 08:21:31;;;;;;;9.25;2.33;;;;;;;22.93;50.39;100569.81;5107751;27;20044;-69
2022/08/28 08:23:58;;;;;;;10.88;2.10;;;;;;;22.80;51.05;100555.78;5101737;28;20048;-69
2022/08/28 08:26:27;;;;;;;7.45;2.17;;;;;;;23.04;50.83;100577.72;5104258;28;20074;-70
2022/08/28 08:28:54;;;;;;;4.15;1.80;;;;;;;23.12;49.38;100577.00;5103329;27;20086;-69
2022/08/28 08:31:27;;;;;;;7.57;2.00;;;;;;;23.04;50.38;100575.03;5102875;27;20406;-69
2022/08/28 08:33:57;;;;;;;7.15;2.10;;;;;;;23.15;49.65;100576.69;5102990;28;20487;-69
2022/08/28 08:36:25;;;;;;;5.53;2.13;;;;;;;23.29;49.59;100581.63;5102686;27;20491;-69
2022/08/28 08:38:53;;;;;;;6.47;1.83;;;;;;;23.42;48.57;100578.56;5102066;27;20059;-70
2022/08/28 08:41:31;;;;;;;7.60;2.20;;;;;;;23.62;47.83;100584.75;5100932;28;20055;-71
2022/08/28 08:44:34;;;;;;;5.35;2.00;;;;;;;23.81;47.67;100581.06;5104281;28;20112;-70
2022/08/28 08:47:12;;;;;;;5.85;2.55;;;;;;;23.70;47.22;100569.47;5099068;27;20552;-69
2022/08/28 08:49:47;;;;;;;6.60;2.33;;;;;;;23.85;46.57;100571.66;5103819;28;20063;-69
2022/08/28 08:52:39;;;;;;;7.80;2.35;;;;;;;24.09;47.20;100593.53;5105905;27;20043;-69
2022/08/28 08:55:24;;;;;;;7.82;2.58;;;;;;;24.24;45.34;100558.72;5102463;27;20160;-69
2022/08/28 08:57:58;;;;;;;7.80;2.45;;;;;;;24.32;45.25;100573.16;5103007;28;20610;-69
2022/08/28 09:00:26;;;;;;;6.80;2.40;;;;;;;24.25;45.81;100582.03;5102532;28;20052;-70
2022/08/28 09:03:04;;;;;;;11.93;3.10;;;;;;;23.84;45.47;100589.75;5086292;28;20117;-70
2022/08/28 09:06:00;;;;;;;7.65;2.58;;;;;;;23.17;47.02;100588.19;5102301;28;20163;-69
2022/08/28 09:08:35;;;;;;;7.18;2.15;;;;;;;22.49;49.13;100565.91;5096544;28;20044;-70
2022/08/28 09:11:16;;;;;;;6.32;2.42;;;;;;;22.52;50.00;100581.78;5100358;28;20043;-69
2022/08/28 09:13:54;;;;;;;8.95;2.75;;;;;;;22.60;49.07;100592.75;5107768;28;20075;-69
2022/08/28 09:16:30;;;;;;;7.35;2.45;;;;;;;22.52;50.21;100589.91;5100463;28;20055;-69
2022/08/28 09:18:59;;;;;;;7.82;2.60;;;;;;;22.43;49.52;100585.38;5105172;28;20067;-71
2022/08/28 09:21:30;;;;;;;12.23;2.85;;;;;;;22.42;50.11;100589.06;5105465;28;20132;-68
2022/08/28 09:24:01;;;;;;;8.10;2.58;;;;;;;22.53;49.34;100588.91;5100902;28;20135;-69
2022/08/28 09:26:37;;;;;;;9.05;2.28;;;;;;;22.49;49.13;100584.81;5103365;28;20044;-69
2022/08/28 09:29:12;;;;;;;8.32;2.40;;;;;;;22.49;49.78;100581.25;5099250;28;20558;-69
2022/08/28 09:31:43;;;;;;;7.45;2.70;;;;;;;22.57;48.67;100584.94;5105293;28;20076;-68
2022/08/28 09:34:22;;;;;;;;;;;;;;;22.67;48.34;100593.00;5097245;28;20143;-69
2022/08/28 09:36:50;;;;;;;5.50;2.28;;;;;;;22.61;48.53;100578.25;5082074;28;19959;-69
2022/08/28 09:39:26;;;;;;;6.57;1.90;;;;;;;22.80;48.52;100593.59;5078775;28;20690;-69
2022/08/28 09:45:12;;;;;;;8.63;2.60;;;;;;;22.95;47.65;100602.09;5076426;28;20414;-69
2022/08/28 09:47:58;;;;;;;6.97;2.33;;;;;;;22.88;47.81;100595.56;5077591;28;20135;-69
2022/08/28 09:50:34;;;;;;;6.05;2.10;;;;;;;22.98;48.23;100593.69;5084486;28;20483;-69
2022/08/28 09:53:10;;;;;;;9.15;2.35;;;;;;;23.04;47.24;100582.28;5073101;28;20099;-70
2022/08/28 09:56:02;;;;;;;8.38;2.63;;;;;;;23.18;47.74;100592.59;5089501;28;20040;-70
2022/08/28 09:58:53;;;;;;;5.43;2.13;;;;;;;23.33;46.52;100588.41;5084934;28;20052;-70
2022/08/28 10:01:45;;;;;;;6.35;2.53;;;;;;;23.44;45.72;100590.94;5089103;28;20084;-69
2022/08/28 10:04:38;;;;;;;6.25;2.58;;;;;;;23.29;46.06;100588.88;5085810;28;20075;-71
2022/08/28 10:07:23;;;;;;;5.43;2.25;;;;;;;23.20;46.80;100587.91;5074936;28;20059;-70
2022/08/28 10:10:16;;;;;;;7.47;2.70;;;;;;;23.27;46.43;100591.72;5074440;28;20068;-68
2022/08/28 10:12:52;;;;;;;7.00;2.15;;;;;;;23.30;46.42;100591.41;5085761;28;20048;-69
2022/08/28 10:15:57;;;;;;;7.10;2.38;;;;;;;23.52;45.99;100592.91;5090467;28;20085;-70
2022/08/28 10:18:34;;;;;;;6.72;2.42;;;;;;;23.67;45.66;100587.84;5004978;28;20058;-69
2022/08/28 10:21:24;;;;;;;6.10;2.58;;;;;;;23.81;44.98;100586.47;5080342;28;20075;-71
2022/08/28 10:24:17;;;;;;;9.13;2.70;;;;;;;23.67;45.43;100560.81;5072988;28;20419;-69
2022/08/28 10:27:30;;;;;;;8.00;2.53;;;;;;;23.72;45.18;100590.97;5086854;28;20146;-69
2022/08/28 10:30:06;;;;;;;8.63;2.72;;;;;;;23.85;45.22;100591.44;5083580;28;20058;-68
2022/08/28 10:32:44;;;;;;;6.22;2.53;;;;;;;23.81;44.60;100581.06;5082676;28;20052;-69
2022/08/28 10:35:21;;;;;;;8.63;2.70;;;;;;;23.53;45.27;100578.41;5101447;28;20091;-70
2022/08/28 10:38:07;;;;;;;6.80;2.78;;;;;;;23.39;45.75;100579.72;5101380;28;20097;-70
2022/08/28 10:41:12;;;;;;;7.35;2.60;;;;;;;23.45;45.83;100573.69;5102985;28;20042;-70
2022/08/28 10:43:48;;;;;;;7.35;2.63;;;;;;;23.51;45.02;100582.22;5079014;28;20049;-70
2022/08/28 10:46:24;;;;;;;6.20;2.30;;;;;;;23.48;46.17;100577.09;5103361;27;20066;-69
2022/08/28 10:49:06;;;;;;;7.38;2.47;;;;;;;23.70;46.33;100576.75;5108825;27;20044;-71
2022/08/28 10:51:43;;;;;;;5.75;2.45;;;;;;;23.86;45.20;100579.63;5098958;27;20604;-69
2022/08/28 10:54:29;;;;;;;6.38;2.53;;;;;;;23.84;44.35;100565.41;5099230;28;20055;-69
2022/08/28 10:57:12;;;;;;;6.28;2.30;;;;;;;23.88;44.79;100576.75;5101599;27;20147;-70
2022/08/28 10:59:40;;;;;;;5.55;2.13;;;;;;;24.00;44.31;100568.25;5086340;28;20059;-70
2022/08/28 11:02:12;;;;;;;5.45;2.40;;;;;;;24.09;43.37;100564.63;5100245;28;20475;-70
2022/08/28 11:04:39;;;;;;;4.55;2.30;;;;;;;24.10;43.64;100557.34;5094696;28;20056;-70
2022/08/28 11:07:10;;;;;;;5.38;2.35;;;;;;;24.24;43.46;100564.13;5099143;27;20123;-70
2022/08/28 11:09:41;;;;;;;7.70;2.50;;;;;;;24.31;42.96;100559.78;5101996;27;20084;-72
2022/08/28 11:12:28;;;;;;;6.63;2.60;;;;;;;24.31;43.18;100557.06;5095418;27;20093;-70
2022/08/28 11:14:55;;;;;;;6.57;2.10;;;;;;;24.34;42.89;100563.03;5087055;28;20495;-70
2022/08/28 11:17:26;;;;;;;6.53;2.30;;;;;;;24.39;43.53;100551.75;5103027;27;20044;-69
2022/08/28 11:20:12;;;;;;;4.47;2.10;;;;;;;24.53;42.94;100564.72;5106680;28;20105;-70
2022/08/28 11:22:57;;;;;;;5.45;2.42;;;;;;;24.66;42.27;100567.84;5100356;27;20409;-70
2022/08/28 11:25:42;;;;;;;5.82;2.33;;;;;;;24.73;42.27;100566.19;5102570;28;20051;-70
2022/08/28 11:28:24;;;;;;;7.50;2.50;;;;;;;24.79;41.27;100568.28;5098061;28;20687;-70
2022/08/28 11:31:00;;;;;;;4.63;2.33;;;;;;;24.69;41.86;100556.72;5101866;27;20692;-70
2022/08/28 11:33:38;;;;;;;4.57;2.13;;;;;;;24.61;42.33;100567.47;5104779;27;20104;-70
2022/08/28 11:36:18;;;;;;;7.15;2.33;;;;;;;24.34;42.71;100551.34;5098026;27;20048;-71
2022/08/28 11:38:45;;;;;;;5.60;2.38;;;;;;;24.38;43.14;100560.88;5095583;28;20051;-70
2022/08/28 11:41:26;;;;;;;5.70;2.60;;;;;;;24.39;42.85;100562.56;5097875;27;20447;-70
2022/08/28 11:44:23;;;;;;;4.68;2.17;;;;;;;24.44;42.38;100552.94;5096690;27;20058;-70
2022/08/28 11:46:54;;;;;;;6.65;2.40;;;;;;;24.60;42.08;100551.38;5099609;27;20059;-70
2022/08/28 11:49:30;;;;;;;7.28;2.70;;;;;;;24.73;41.59;100551.78;5094634;28;20052;-71
2022/08/28 11:52:21;;;;;;;3.33;1.90;;;;;;;24.79;41.99;100549.31;5100339;28;20079;-70